sensor_id;sensor_type;location;lat;lon;timestamp;P1;durP1;ratioP1;P2;durP2;ratioP2
40837;SDS011;29632;49.168;9.848;2022-08-11T00:01:49;3.20;;;1.60;;
40837;SDS011;29632;49.168;9.848;2022-08-11T00:04:20;2.13;;;1.50;;
40837;SDS011;29632;49.168;9.848;2022-08-11T00:06:51;4.57;;;1.53;;
40837;SDS011;29632;49.168;9.848;2022-08-11T00:09:18;3.53;;;2.07;;
40837;SDS011;29632;49.168;9.848;2022-08-11T00:11:55;6.83;;;1.80;;
40837;SDS011;29632;49.168;9.848;2022-08-11T00:14:23;3.33;;;1.73;;
40837;SDS011;29632;49.168;9.848;2022-08-11T00:16:55;3.20;;;1.53;;
40837;SDS011;29632;49.168;9.848;2022-08-11T00:19:28;1.70;;;1.40;;
40837;SDS011;29632;49.168;9.848;2022-08-11T00:21:58;5.40;;;2.10;;
40837;SDS011;29632;49.168;9.848;2022-08-11T00:24:31;4.70;;;2.33;;
40837;SDS011;29632;49.168;9.848;2022-08-11T00:26:59;5.37;;;1.60;;
40837;SDS011;29632;49.168;9.848;2022-08-11T00:29:25;2.43;;;1.60;;
40837;SDS011;29632;49.168;9.848;2022-08-11T00:31:52;4.53;;;2.00;;
40837;SDS011;29632;49.168;9.848;2022-08-11T00:34:25;2.30;;;1.60;;
40837;SDS011;29632;49.168;9.848;2022-08-11T00:36:59;4.90;;;1.90;;
40837;SDS011;29632;49.168;9.848;2022-08-11T00:39:32;6.33;;;2.27;;
40837;SDS011;29632;49.168;9.848;2022-08-11T00:42:18;3.57;;;2.30;;
40837;SDS011;29632;49.168;9.848;2022-08-11T00:45:08;4.50;;;1.40;;
40837;SDS011;29632;49.168;9.848;2022-08-11T00:50:49;2.33;;;1.80;;
40837;SDS011;29632;49.168;9.848;2022-08-11T00:56:37;2.13;;;1.73;;
40837;SDS011;29632;49.168;9.848;2022-08-11T01:00:01;2.40;;;1.27;;
40837;SDS011;29632;49.168;9.848;2022-08-11T01:03:14;2.00;;;1.40;;
40837;SDS011;29632;49.168;9.848;2022-08-11T01:29:59;4.03;;;1.60;;
40837;SDS011;29632;49.168;9.848;2022-08-11T01:45:26;2.60;;;1.77;;
40837;SDS011;29632;49.168;9.848;2022-08-11T01:59:51;3.07;;;2.03;;
40837;SDS011;29632;49.168;9.848;2022-08-11T02:11:58;3.53;;;1.90;;
40837;SDS011;29632;49.168;9.848;2022-08-11T02:15:08;3.10;;;1.70;;
40837;SDS011;29632;49.168;9.848;2022-08-11T02:18:20;3.70;;;1.80;;
40837;SDS011;29632;49.168;9.848;2022-08-11T02:21:18;2.43;;;1.87;;
40837;SDS011;29632;49.168;9.848;2022-08-11T02:24:22;3.20;;;1.73;;
40837;SDS011;29632;49.168;9.848;2022-08-11T02:27:26;2.63;;;1.70;;
40837;SDS011;29632;49.168;9.848;2022-08-11T02:30:14;4.53;;;2.17;;
40837;SDS011;29632;49.168;9.848;2022-08-11T02:32:54;2.20;;;2.00;;
40837;SDS011;29632;49.168;9.848;2022-08-11T02:50:52;3.13;;;1.67;;
40837;SDS011;29632;49.168;9.848;2022-08-11T02:53:29;4.43;;;2.30;;
40837;SDS011;29632;49.168;9.848;2022-08-11T02:56:15;4.93;;;1.50;;
40837;SDS011;29632;49.168;9.848;2022-08-11T03:05:25;3.47;;;1.70;;
40837;SDS011;29632;49.168;9.848;2022-08-11T03:14:28;3.53;;;2.00;;
40837;SDS011;29632;49.168;9.848;2022-08-11T03:17:35;2.60;;;1.73;;
40837;SDS011;29632;49.168;9.848;2022-08-11T03:20:22;4.40;;;2.10;;
40837;SDS011;29632;49.168;9.848;2022-08-11T03:23:02;2.87;;;1.87;;
40837;SDS011;29632;49.168;9.848;2022-08-11T03:31:45;3.50;;;1.87;;
40837;SDS011;29632;49.168;9.848;2022-08-11T03:34:24;2.17;;;1.63;;
40837;SDS011;29632;49.168;9.848;2022-08-11T03:36:58;5.30;;;2.37;;
40837;SDS011;29632;49.168;9.848;2022-08-11T03:42:49;4.10;;;2.60;;
40837;SDS011;29632;49.168;9.848;2022-08-11T03:51:19;2.53;;;1.83;;
40837;SDS011;29632;49.168;9.848;2022-08-11T03:54:28;3.20;;;2.20;;
40837;SDS011;29632;49.168;9.848;2022-08-11T04:06:27;3.93;;;1.97;;
40837;SDS011;29632;49.168;9.848;2022-08-11T04:21:19;4.10;;;2.20;;
40837;SDS011;29632;49.168;9.848;2022-08-11T04:42:39;5.13;;;2.00;;
40837;SDS011;29632;49.168;9.848;2022-08-11T04:58:43;2.83;;;2.00;;
40837;SDS011;29632;49.168;9.848;2022-08-11T05:16:59;3.65;;;2.08;;
40837;SDS011;29632;49.168;9.848;2022-08-11T05:19:53;7.00;;;2.40;;
40837;SDS011;29632;49.168;9.848;2022-08-11T05:22:38;4.53;;;2.17;;
40837;SDS011;29632;49.168;9.848;2022-08-11T05:25:31;3.53;;;1.67;;
40837;SDS011;29632;49.168;9.848;2022-08-11T05:31:20;6.47;;;2.60;;
40837;SDS011;29632;49.168;9.848;2022-08-11T05:34:25;2.77;;;1.80;;
40837;SDS011;29632;49.168;9.848;2022-08-11T05:40:00;3.27;;;2.10;;
40837;SDS011;29632;49.168;9.848;2022-08-11T05:42:54;2.90;;;2.13;;
40837;SDS011;29632;49.168;9.848;2022-08-11T05:45:54;5.33;;;2.03;;
40837;SDS011;29632;49.168;9.848;2022-08-11T05:48:44;5.10;;;1.80;;
40837;SDS011;29632;49.168;9.848;2022-08-11T05:51:38;3.77;;;2.00;;
40837;SDS011;29632;49.168;9.848;2022-08-11T05:54:27;2.83;;;1.87;;
40837;SDS011;29632;49.168;9.848;2022-08-11T06:00:08;5.17;;;2.47;;
40837;SDS011;29632;49.168;9.848;2022-08-11T06:02:39;3.33;;;2.00;;
40837;SDS011;29632;49.168;9.848;2022-08-11T06:05:07;3.53;;;2.10;;
40837;SDS011;29632;49.168;9.848;2022-08-11T06:07:35;4.23;;;2.27;;
40837;SDS011;29632;49.168;9.848;2022-08-11T06:10:02;5.37;;;1.97;;
40837;SDS011;29632;49.168;9.848;2022-08-11T06:12:29;6.93;;;2.10;;
40837;SDS011;29632;49.168;9.848;2022-08-11T06:15:02;4.20;;;2.00;;
40837;SDS011;29632;49.168;9.848;2022-08-11T06:17:31;4.80;;;2.30;;
40837;SDS011;29632;49.168;9.848;2022-08-11T06:20:08;3.53;;;1.60;;
40837;SDS011;29632;49.168;9.848;2022-08-11T06:22:36;4.43;;;1.90;;
40837;SDS011;29632;49.168;9.848;2022-08-11T06:25:05;5.43;;;1.70;;
40837;SDS011;29632;49.168;9.848;2022-08-11T06:27:34;5.50;;;2.03;;
40837;SDS011;29632;49.168;9.848;2022-08-11T06:30:02;3.50;;;1.97;;
40837;SDS011;29632;49.168;9.848;2022-08-11T06:32:37;3.87;;;1.93;;
40837;SDS011;29632;49.168;9.848;2022-08-11T06:35:28;4.53;;;2.03;;
40837;SDS011;29632;49.168;9.848;2022-08-11T06:41:44;3.23;;;2.23;;
40837;SDS011;29632;49.168;9.848;2022-08-11T06:45:00;6.07;;;2.33;;
40837;SDS011;29632;49.168;9.848;2022-08-11T06:47:33;3.20;;;2.30;;
40837;SDS011;29632;49.168;9.848;2022-08-11T06:49:59;3.13;;;1.80;;
40837;SDS011;29632;49.168;9.848;2022-08-11T06:52:45;4.57;;;1.90;;
40837;SDS011;29632;49.168;9.848;2022-08-11T06:55:13;3.77;;;2.40;;
40837;SDS011;29632;49.168;9.848;2022-08-11T06:58:12;3.47;;;2.03;;
40837;SDS011;29632;49.168;9.848;2022-08-11T07:01:06;4.60;;;2.10;;
40837;SDS011;29632;49.168;9.848;2022-08-11T07:03:38;5.53;;;2.53;;
40837;SDS011;29632;49.168;9.848;2022-08-11T07:06:15;7.53;;;1.93;;
40837;SDS011;29632;49.168;9.848;2022-08-11T07:15:26;3.40;;;2.00;;
40837;SDS011;29632;49.168;9.848;2022-08-11T07:18:06;3.63;;;1.60;;
40837;SDS011;29632;49.168;9.848;2022-08-11T07:20:54;2.40;;;1.53;;
40837;SDS011;29632;49.168;9.848;2022-08-11T07:24:15;3.77;;;1.63;;
40837;SDS011;29632;49.168;9.848;2022-08-11T07:27:03;5.25;;;1.85;;
40837;SDS011;29632;49.168;9.848;2022-08-11T07:29:54;7.07;;;1.93;;
40837;SDS011;29632;49.168;9.848;2022-08-11T07:32:29;2.07;;;1.60;;
40837;SDS011;29632;49.168;9.848;2022-08-11T07:35:14;4.20;;;2.10;;
40837;SDS011;29632;49.168;9.848;2022-08-11T07:37:46;2.93;;;1.60;;
40837;SDS011;29632;49.168;9.848;2022-08-11T07:40:20;3.50;;;2.10;;
40837;SDS011;29632;49.168;9.848;2022-08-11T07:42:50;3.17;;;1.77;;
40837;SDS011;29632;49.168;9.848;2022-08-11T07:45:17;2.77;;;1.80;;
40837;SDS011;29632;49.168;9.848;2022-08-11T07:48:03;2.22;;;1.70;;
40837;SDS011;29632;49.168;9.848;2022-08-11T07:50:49;5.53;;;2.05;;
40837;SDS011;29632;49.168;9.848;2022-08-11T07:53:34;2.13;;;1.70;;
40837;SDS011;29632;49.168;9.848;2022-08-11T07:56:02;3.85;;;1.92;;
40837;SDS011;29632;49.168;9.848;2022-08-11T07:58:30;3.92;;;1.65;;
40837;SDS011;29632;49.168;9.848;2022-08-11T08:01:20;3.47;;;2.15;;
40837;SDS011;29632;49.168;9.848;2022-08-11T08:04:08;4.30;;;1.63;;
40837;SDS011;29632;49.168;9.848;2022-08-11T08:06:55;3.42;;;1.85;;
40837;SDS011;29632;49.168;9.848;2022-08-11T08:09:41;2.13;;;1.48;;
40837;SDS011;29632;49.168;9.848;2022-08-11T08:12:27;2.42;;;1.73;;
40837;SDS011;29632;49.168;9.848;2022-08-11T08:15:13;4.28;;;1.75;;
40837;SDS011;29632;49.168;9.848;2022-08-11T08:17:59;3.72;;;1.50;;
40837;SDS011;29632;49.168;9.848;2022-08-11T08:20:29;4.30;;;1.55;;
40837;SDS011;29632;49.168;9.848;2022-08-11T08:23:02;3.65;;;1.77;;
40837;SDS011;29632;49.168;9.848;2022-08-11T08:25:29;2.70;;;2.08;;
40837;SDS011;29632;49.168;9.848;2022-08-11T08:27:58;2.70;;;1.70;;
40837;SDS011;29632;49.168;9.848;2022-08-11T08:30:33;3.92;;;1.60;;
40837;SDS011;29632;49.168;9.848;2022-08-11T08:33:16;5.30;;;1.77;;
40837;SDS011;29632;49.168;9.848;2022-08-11T08:35:47;8.18;;;1.83;;
40837;SDS011;29632;49.168;9.848;2022-08-11T08:38:42;4.68;;;1.83;;
40837;SDS011;29632;49.168;9.848;2022-08-11T08:41:16;4.25;;;1.60;;
40837;SDS011;29632;49.168;9.848;2022-08-11T08:43:54;2.53;;;1.90;;
40837;SDS011;29632;49.168;9.848;2022-08-11T08:46:26;2.22;;;1.27;;
40837;SDS011;29632;49.168;9.848;2022-08-11T08:49:22;4.60;;;1.40;;
40837;SDS011;29632;49.168;9.848;2022-08-11T08:51:57;4.93;;;2.00;;
40837;SDS011;29632;49.168;9.848;2022-08-11T08:54:29;1.70;;;1.42;;
40837;SDS011;29632;49.168;9.848;2022-08-11T08:57:01;1.92;;;1.25;;
40837;SDS011;29632;49.168;9.848;2022-08-11T08:59:30;2.00;;;1.17;;
40837;SDS011;29632;49.168;9.848;2022-08-11T09:02:04;1.83;;;1.30;;
40837;SDS011;29632;49.168;9.848;2022-08-11T09:04:31;3.10;;;1.45;;
40837;SDS011;29632;49.168;9.848;2022-08-11T09:06:59;5.20;;;1.50;;
40837;SDS011;29632;49.168;9.848;2022-08-11T09:09:33;3.85;;;1.88;;
40837;SDS011;29632;49.168;9.848;2022-08-11T09:11:59;4.68;;;1.67;;
40837;SDS011;29632;49.168;9.848;2022-08-11T09:17:19;3.42;;;1.40;;
40837;SDS011;29632;49.168;9.848;2022-08-11T09:19:47;1.95;;;1.17;;
40837;SDS011;29632;49.168;9.848;2022-08-11T09:22:22;3.50;;;1.33;;
40837;SDS011;29632;49.168;9.848;2022-08-11T09:25:08;2.47;;;1.23;;
40837;SDS011;29632;49.168;9.848;2022-08-11T09:27:53;1.98;;;1.20;;
40837;SDS011;29632;49.168;9.848;2022-08-11T09:30:20;2.88;;;1.40;;
40837;SDS011;29632;49.168;9.848;2022-08-11T09:32:52;2.70;;;1.30;;
40837;SDS011;29632;49.168;9.848;2022-08-11T09:35:23;4.70;;;1.65;;
40837;SDS011;29632;49.168;9.848;2022-08-11T09:37:55;3.70;;;1.40;;
40837;SDS011;29632;49.168;9.848;2022-08-11T09:40:42;6.93;;;1.88;;
40837;SDS011;29632;49.168;9.848;2022-08-11T09:43:11;1.92;;;1.40;;
40837;SDS011;29632;49.168;9.848;2022-08-11T09:45:59;3.97;;;1.38;;
40837;SDS011;29632;49.168;9.848;2022-08-11T09:48:26;5.13;;;1.60;;
40837;SDS011;29632;49.168;9.848;2022-08-11T09:50:59;4.00;;;1.63;;
40837;SDS011;29632;49.168;9.848;2022-08-11T09:53:27;2.47;;;1.50;;
40837;SDS011;29632;49.168;9.848;2022-08-11T09:55:57;2.00;;;1.20;;
40837;SDS011;29632;49.168;9.848;2022-08-11T09:58:44;4.00;;;1.48;;
40837;SDS011;29632;49.168;9.848;2022-08-11T10:01:10;4.50;;;1.50;;
40837;SDS011;29632;49.168;9.848;2022-08-11T10:03:50;4.10;;;1.77;;
40837;SDS011;29632;49.168;9.848;2022-08-11T10:06:24;3.78;;;1.83;;
40837;SDS011;29632;49.168;9.848;2022-08-11T10:09:11;3.05;;;1.40;;
40837;SDS011;29632;49.168;9.848;2022-08-11T10:11:44;2.35;;;1.10;;
40837;SDS011;29632;49.168;9.848;2022-08-11T10:14:11;5.25;;;1.60;;
40837;SDS011;29632;49.168;9.848;2022-08-11T10:16:58;1.33;;;1.20;;
40837;SDS011;29632;49.168;9.848;2022-08-11T10:19:29;1.58;;;1.27;;
40837;SDS011;29632;49.168;9.848;2022-08-11T10:22:00;3.17;;;1.40;;
40837;SDS011;29632;49.168;9.848;2022-08-11T10:24:46;2.85;;;1.70;;
40837;SDS011;29632;49.168;9.848;2022-08-11T10:27:31;4.00;;;1.20;;
40837;SDS011;29632;49.168;9.848;2022-08-11T10:29:57;1.10;;;1.00;;
40837;SDS011;29632;49.168;9.848;2022-08-11T10:32:43;2.20;;;1.08;;
40837;SDS011;29632;49.168;9.848;2022-08-11T10:35:28;2.85;;;1.20;;
40837;SDS011;29632;49.168;9.848;2022-08-11T10:37:56;11.80;;;1.45;;
40837;SDS011;29632;49.168;9.848;2022-08-11T10:40:24;3.05;;;1.10;;
40837;SDS011;29632;49.168;9.848;2022-08-11T10:42:51;2.05;;;1.27;;
40837;SDS011;29632;49.168;9.848;2022-08-11T10:45:34;1.77;;;0.70;;
40837;SDS011;29632;49.168;9.848;2022-08-11T10:48:22;3.75;;;1.20;;
40837;SDS011;29632;49.168;9.848;2022-08-11T10:50:51;1.23;;;1.10;;
40837;SDS011;29632;49.168;9.848;2022-08-11T10:53:41;3.70;;;1.27;;
40837;SDS011;29632;49.168;9.848;2022-08-11T10:56:28;1.48;;;0.95;;
40837;SDS011;29632;49.168;9.848;2022-08-11T10:59:18;2.10;;;0.90;;
40837;SDS011;29632;49.168;9.848;2022-08-11T11:01:46;4.95;;;1.08;;
40837;SDS011;29632;49.168;9.848;2022-08-11T11:04:17;1.88;;;0.80;;
40837;SDS011;29632;49.168;9.848;2022-08-11T11:09:48;2.25;;;1.00;;
40837;SDS011;29632;49.168;9.848;2022-08-11T11:12:26;2.72;;;1.00;;
40837;SDS011;29632;49.168;9.848;2022-08-11T11:15:37;2.60;;;0.95;;
40837;SDS011;29632;49.168;9.848;2022-08-11T11:18:33;1.77;;;0.95;;
40837;SDS011;29632;49.168;9.848;2022-08-11T11:21:05;1.50;;;1.10;;
40837;SDS011;29632;49.168;9.848;2022-08-11T11:37:40;1.45;;;0.90;;
40837;SDS011;29632;49.168;9.848;2022-08-11T11:40:17;1.25;;;1.00;;
40837;SDS011;29632;49.168;9.848;2022-08-11T11:42:50;4.00;;;1.38;;
40837;SDS011;29632;49.168;9.848;2022-08-11T11:45:21;3.72;;;1.13;;
40837;SDS011;29632;49.168;9.848;2022-08-11T11:47:49;2.53;;;1.70;;
40837;SDS011;29632;49.168;9.848;2022-08-11T11:50:37;0.90;;;0.85;;
40837;SDS011;29632;49.168;9.848;2022-08-11T11:53:04;2.60;;;0.98;;
40837;SDS011;29632;49.168;9.848;2022-08-11T11:55:33;4.38;;;1.67;;
40837;SDS011;29632;49.168;9.848;2022-08-11T11:58:00;2.08;;;1.10;;
40837;SDS011;29632;49.168;9.848;2022-08-11T12:00:47;2.88;;;1.25;;
40837;SDS011;29632;49.168;9.848;2022-08-11T12:03:33;2.35;;;1.20;;
40837;SDS011;29632;49.168;9.848;2022-08-11T12:06:01;2.17;;;1.10;;
40837;SDS011;29632;49.168;9.848;2022-08-11T12:08:28;1.55;;;0.82;;
40837;SDS011;29632;49.168;9.848;2022-08-11T12:10:59;3.65;;;1.00;;
40837;SDS011;29632;49.168;9.848;2022-08-11T12:13:48;2.30;;;1.00;;
40837;SDS011;29632;49.168;9.848;2022-08-11T12:16:17;1.20;;;1.10;;
40837;SDS011;29632;49.168;9.848;2022-08-11T12:18:46;3.00;;;0.95;;
40837;SDS011;29632;49.168;9.848;2022-08-11T12:21:15;2.55;;;1.25;;
40837;SDS011;29632;49.168;9.848;2022-08-11T12:23:42;3.00;;;1.00;;
40837;SDS011;29632;49.168;9.848;2022-08-11T12:26:29;1.80;;;1.20;;
40837;SDS011;29632;49.168;9.848;2022-08-11T12:29:23;1.55;;;1.00;;
40837;SDS011;29632;49.168;9.848;2022-08-11T12:31:53;1.65;;;1.08;;
40837;SDS011;29632;49.168;9.848;2022-08-11T12:36:54;1.60;;;0.77;;
40837;SDS011;29632;49.168;9.848;2022-08-11T12:39:31;1.48;;;1.17;;
40837;SDS011;29632;49.168;9.848;2022-08-11T12:42:20;2.08;;;1.17;;
40837;SDS011;29632;49.168;9.848;2022-08-11T12:45:07;1.17;;;0.88;;
40837;SDS011;29632;49.168;9.848;2022-08-11T12:47:53;3.05;;;1.10;;
40837;SDS011;29632;49.168;9.848;2022-08-11T12:51:00;3.05;;;1.30;;
40837;SDS011;29632;49.168;9.848;2022-08-11T12:54:04;2.55;;;1.60;;
40837;SDS011;29632;49.168;9.848;2022-08-11T12:56:44;2.20;;;1.13;;
40837;SDS011;29632;49.168;9.848;2022-08-11T12:59:33;1.20;;;1.02;;
40837;SDS011;29632;49.168;9.848;2022-08-11T13:02:20;2.47;;;1.27;;
40837;SDS011;29632;49.168;9.848;2022-08-11T13:05:07;1.27;;;0.82;;
40837;SDS011;29632;49.168;9.848;2022-08-11T13:07:37;2.75;;;1.42;;
40837;SDS011;29632;49.168;9.848;2022-08-11T13:10:08;1.48;;;1.00;;
40837;SDS011;29632;49.168;9.848;2022-08-11T13:12:37;1.25;;;0.98;;
40837;SDS011;29632;49.168;9.848;2022-08-11T13:17:44;1.02;;;0.90;;
40837;SDS011;29632;49.168;9.848;2022-08-11T13:20:13;1.33;;;1.20;;
40837;SDS011;29632;49.168;9.848;2022-08-11T13:22:44;3.45;;;0.98;;
40837;SDS011;29632;49.168;9.848;2022-08-11T13:25:18;2.63;;;1.17;;
40837;SDS011;29632;49.168;9.848;2022-08-11T13:27:46;2.38;;;1.13;;
40837;SDS011;29632;49.168;9.848;2022-08-11T13:30:14;1.50;;;1.10;;
40837;SDS011;29632;49.168;9.848;2022-08-11T13:33:00;2.92;;;1.05;;
40837;SDS011;29632;49.168;9.848;2022-08-11T13:35:29;1.38;;;1.20;;
40837;SDS011;29632;49.168;9.848;2022-08-11T13:37:56;1.75;;;1.17;;
40837;SDS011;29632;49.168;9.848;2022-08-11T13:40:25;2.97;;;1.42;;
40837;SDS011;29632;49.168;9.848;2022-08-11T13:42:51;2.88;;;1.38;;
40837;SDS011;29632;49.168;9.848;2022-08-11T13:45:18;2.72;;;1.08;;
40837;SDS011;29632;49.168;9.848;2022-08-11T13:47:48;2.40;;;1.10;;
40837;SDS011;29632;49.168;9.848;2022-08-11T13:50:16;2.33;;;1.30;;
40837;SDS011;29632;49.168;9.848;2022-08-11T13:52:43;3.70;;;1.40;;
40837;SDS011;29632;49.168;9.848;2022-08-11T13:55:11;4.13;;;1.45;;
40837;SDS011;29632;49.168;9.848;2022-08-11T13:57:46;2.78;;;1.70;;
40837;SDS011;29632;49.168;9.848;2022-08-11T14:00:16;2.45;;;0.85;;
40837;SDS011;29632;49.168;9.848;2022-08-11T14:02:43;2.58;;;1.30;;
40837;SDS011;29632;49.168;9.848;2022-08-11T14:05:16;1.30;;;1.08;;
40837;SDS011;29632;49.168;9.848;2022-08-11T14:07:50;1.98;;;1.20;;
40837;SDS011;29632;49.168;9.848;2022-08-11T14:10:25;1.73;;;1.20;;
40837;SDS011;29632;49.168;9.848;2022-08-11T14:12:58;2.80;;;1.30;;
40837;SDS011;29632;49.168;9.848;2022-08-11T14:15:46;1.70;;;1.23;;
40837;SDS011;29632;49.168;9.848;2022-08-11T14:18:17;1.85;;;1.10;;
40837;SDS011;29632;49.168;9.848;2022-08-11T14:20:54;2.40;;;1.00;;
40837;SDS011;29632;49.168;9.848;2022-08-11T14:23:41;3.97;;;1.50;;
40837;SDS011;29632;49.168;9.848;2022-08-11T14:26:14;2.47;;;1.50;;
40837;SDS011;29632;49.168;9.848;2022-08-11T14:28:58;1.73;;;1.30;;
40837;SDS011;29632;49.168;9.848;2022-08-11T14:31:29;1.13;;;0.90;;
40837;SDS011;29632;49.168;9.848;2022-08-11T14:34:01;4.25;;;1.50;;
40837;SDS011;29632;49.168;9.848;2022-08-11T14:36:33;4.03;;;1.33;;
40837;SDS011;29632;49.168;9.848;2022-08-11T14:39:03;2.90;;;1.33;;
40837;SDS011;29632;49.168;9.848;2022-08-11T14:41:36;1.27;;;1.10;;
40837;SDS011;29632;49.168;9.848;2022-08-11T14:44:27;1.52;;;1.17;;
40837;SDS011;29632;49.168;9.848;2022-08-11T14:47:13;2.38;;;1.20;;
40837;SDS011;29632;49.168;9.848;2022-08-11T14:49:41;1.37;;;1.17;;
40837;SDS011;29632;49.168;9.848;2022-08-11T14:52:11;3.45;;;1.67;;
40837;SDS011;29632;49.168;9.848;2022-08-11T14:54:43;2.40;;;1.48;;
40837;SDS011;29632;49.168;9.848;2022-08-11T14:57:32;2.88;;;1.08;;
40837;SDS011;29632;49.168;9.848;2022-08-11T15:00:03;2.20;;;1.08;;
40837;SDS011;29632;49.168;9.848;2022-08-11T15:02:33;4.38;;;1.27;;
40837;SDS011;29632;49.168;9.848;2022-08-11T15:05:21;2.92;;;1.40;;
40837;SDS011;29632;49.168;9.848;2022-08-11T15:07:49;1.73;;;1.23;;
40837;SDS011;29632;49.168;9.848;2022-08-11T15:10:17;1.67;;;1.23;;
40837;SDS011;29632;49.168;9.848;2022-08-11T15:12:44;3.15;;;1.40;;
40837;SDS011;29632;49.168;9.848;2022-08-11T15:15:11;5.13;;;1.50;;
40837;SDS011;29632;49.168;9.848;2022-08-11T15:17:58;2.42;;;1.60;;
40837;SDS011;29632;49.168;9.848;2022-08-11T15:20:28;3.40;;;2.25;;
40837;SDS011;29632;49.168;9.848;2022-08-11T15:23:13;5.07;;;2.50;;
40837;SDS011;29632;49.168;9.848;2022-08-11T15:26:17;2.30;;;1.88;;
40837;SDS011;29632;49.168;9.848;2022-08-11T15:29:09;2.10;;;1.60;;
40837;SDS011;29632;49.168;9.848;2022-08-11T15:31:57;3.55;;;1.63;;
40837;SDS011;29632;49.168;9.848;2022-08-11T15:34:42;3.63;;;2.20;;
40837;SDS011;29632;49.168;9.848;2022-08-11T15:37:32;4.18;;;2.10;;
40837;SDS011;29632;49.168;9.848;2022-08-11T15:43:37;3.03;;;2.13;;
40837;SDS011;29632;49.168;9.848;2022-08-11T15:46:22;3.97;;;1.85;;
40837;SDS011;29632;49.168;9.848;2022-08-11T15:49:03;3.45;;;1.95;;
40837;SDS011;29632;49.168;9.848;2022-08-11T15:51:48;3.03;;;1.23;;
40837;SDS011;29632;49.168;9.848;2022-08-11T15:54:25;6.68;;;2.40;;
40837;SDS011;29632;49.168;9.848;2022-08-11T15:56:55;2.60;;;1.45;;
40837;SDS011;29632;49.168;9.848;2022-08-11T15:59:25;2.53;;;1.90;;
40837;SDS011;29632;49.168;9.848;2022-08-11T16:02:14;3.28;;;1.58;;
40837;SDS011;29632;49.168;9.848;2022-08-11T16:05:05;2.50;;;1.60;;
40837;SDS011;29632;49.168;9.848;2022-08-11T16:07:37;2.22;;;1.70;;
40837;SDS011;29632;49.168;9.848;2022-08-11T16:10:05;3.90;;;1.88;;
40837;SDS011;29632;49.168;9.848;2022-08-11T16:12:36;3.38;;;1.70;;
40837;SDS011;29632;49.168;9.848;2022-08-11T16:15:30;4.13;;;1.60;;
40837;SDS011;29632;49.168;9.848;2022-08-11T16:18:19;5.50;;;1.70;;
40837;SDS011;29632;49.168;9.848;2022-08-11T16:20:49;2.60;;;1.70;;
40837;SDS011;29632;49.168;9.848;2022-08-11T16:23:19;3.47;;;1.13;;
40837;SDS011;29632;49.168;9.848;2022-08-11T16:25:46;2.25;;;1.58;;
40837;SDS011;29632;49.168;9.848;2022-08-11T16:28:14;1.73;;;1.23;;
40837;SDS011;29632;49.168;9.848;2022-08-11T16:30:40;2.63;;;1.80;;
40837;SDS011;29632;49.168;9.848;2022-08-11T16:33:10;3.15;;;1.58;;
40837;SDS011;29632;49.168;9.848;2022-08-11T16:35:37;2.13;;;1.55;;
40837;SDS011;29632;49.168;9.848;2022-08-11T16:38:24;2.38;;;1.50;;
40837;SDS011;29632;49.168;9.848;2022-08-11T16:41:00;2.20;;;1.20;;
40837;SDS011;29632;49.168;9.848;2022-08-11T16:43:33;2.65;;;1.55;;
40837;SDS011;29632;49.168;9.848;2022-08-11T16:46:28;1.30;;;0.85;;
40837;SDS011;29632;49.168;9.848;2022-08-11T16:49:18;3.03;;;1.48;;
40837;SDS011;29632;49.168;9.848;2022-08-11T16:51:49;3.33;;;1.60;;
40837;SDS011;29632;49.168;9.848;2022-08-11T16:54:16;1.90;;;1.20;;
40837;SDS011;29632;49.168;9.848;2022-08-11T16:56:48;3.10;;;1.10;;
40837;SDS011;29632;49.168;9.848;2022-08-11T16:59:36;1.92;;;1.40;;
40837;SDS011;29632;49.168;9.848;2022-08-11T17:02:07;2.40;;;1.02;;
40837;SDS011;29632;49.168;9.848;2022-08-11T17:05:07;1.52;;;0.98;;
40837;SDS011;29632;49.168;9.848;2022-08-11T17:07:58;3.20;;;1.30;;
40837;SDS011;29632;49.168;9.848;2022-08-11T17:10:48;2.33;;;1.30;;
40837;SDS011;29632;49.168;9.848;2022-08-11T17:13:49;2.22;;;1.38;;
40837;SDS011;29632;49.168;9.848;2022-08-11T17:16:26;3.05;;;1.30;;
40837;SDS011;29632;49.168;9.848;2022-08-11T17:19:01;3.65;;;1.13;;
40837;SDS011;29632;49.168;9.848;2022-08-11T17:21:45;4.05;;;1.30;;
40837;SDS011;29632;49.168;9.848;2022-08-11T17:24:32;3.38;;;1.00;;
40837;SDS011;29632;49.168;9.848;2022-08-11T17:27:11;3.35;;;1.77;;
40837;SDS011;29632;49.168;9.848;2022-08-11T17:32:18;2.13;;;1.15;;
40837;SDS011;29632;49.168;9.848;2022-08-11T17:35:10;1.42;;;1.00;;
40837;SDS011;29632;49.168;9.848;2022-08-11T17:38:05;4.30;;;1.27;;
40837;SDS011;29632;49.168;9.848;2022-08-11T17:40:42;1.67;;;1.25;;
40837;SDS011;29632;49.168;9.848;2022-08-11T17:43:34;2.55;;;1.05;;
40837;SDS011;29632;49.168;9.848;2022-08-11T17:46:19;2.60;;;1.30;;
40837;SDS011;29632;49.168;9.848;2022-08-11T17:49:04;2.67;;;1.08;;
40837;SDS011;29632;49.168;9.848;2022-08-11T17:51:32;2.97;;;1.70;;
40837;SDS011;29632;49.168;9.848;2022-08-11T17:54:18;2.05;;;1.13;;
40837;SDS011;29632;49.168;9.848;2022-08-11T17:57:05;1.92;;;1.40;;
40837;SDS011;29632;49.168;9.848;2022-08-11T17:59:51;1.23;;;1.02;;
40837;SDS011;29632;49.168;9.848;2022-08-11T18:05:19;1.33;;;0.77;;
40837;SDS011;29632;49.168;9.848;2022-08-11T18:07:50;2.17;;;1.55;;
40837;SDS011;29632;49.168;9.848;2022-08-11T18:10:39;2.30;;;1.20;;
40837;SDS011;29632;49.168;9.848;2022-08-11T18:13:26;4.30;;;1.00;;
40837;SDS011;29632;49.168;9.848;2022-08-11T18:18:58;4.20;;;1.20;;
40837;SDS011;29632;49.168;9.848;2022-08-11T18:21:44;1.30;;;1.00;;
40837;SDS011;29632;49.168;9.848;2022-08-11T18:24:38;2.40;;;1.30;;
40837;SDS011;29632;49.168;9.848;2022-08-11T18:27:30;2.67;;;1.10;;
40837;SDS011;29632;49.168;9.848;2022-08-11T18:30:17;2.97;;;1.33;;
40837;SDS011;29632;49.168;9.848;2022-08-11T18:33:02;1.52;;;1.10;;
40837;SDS011;29632;49.168;9.848;2022-08-11T18:35:49;2.83;;;1.20;;
40837;SDS011;29632;49.168;9.848;2022-08-11T18:38:41;1.60;;;0.90;;
40837;SDS011;29632;49.168;9.848;2022-08-11T18:41:26;1.05;;;0.80;;
40837;SDS011;29632;49.168;9.848;2022-08-11T18:44:14;2.17;;;1.00;;
40837;SDS011;29632;49.168;9.848;2022-08-11T18:47:01;1.60;;;1.17;;
40837;SDS011;29632;49.168;9.848;2022-08-11T18:49:52;2.35;;;1.27;;
40837;SDS011;29632;49.168;9.848;2022-08-11T18:52:39;3.53;;;1.20;;
40837;SDS011;29632;49.168;9.848;2022-08-11T18:55:26;1.85;;;1.30;;
40837;SDS011;29632;49.168;9.848;2022-08-11T18:58:12;1.48;;;1.10;;
40837;SDS011;29632;49.168;9.848;2022-08-11T19:01:02;2.08;;;0.98;;
40837;SDS011;29632;49.168;9.848;2022-08-11T19:03:49;1.75;;;1.38;;
40837;SDS011;29632;49.168;9.848;2022-08-11T19:06:36;3.83;;;1.00;;
40837;SDS011;29632;49.168;9.848;2022-08-11T19:09:22;3.67;;;1.40;;
40837;SDS011;29632;49.168;9.848;2022-08-11T19:12:09;1.67;;;1.00;;
40837;SDS011;29632;49.168;9.848;2022-08-11T19:14:55;1.35;;;1.10;;
40837;SDS011;29632;49.168;9.848;2022-08-11T19:17:43;2.50;;;1.30;;
40837;SDS011;29632;49.168;9.848;2022-08-11T19:20:29;2.85;;;1.30;;
40837;SDS011;29632;49.168;9.848;2022-08-11T19:23:18;3.70;;;1.48;;
40837;SDS011;29632;49.168;9.848;2022-08-11T19:26:10;3.35;;;1.50;;
40837;SDS011;29632;49.168;9.848;2022-08-11T19:28:56;1.48;;;1.15;;
40837;SDS011;29632;49.168;9.848;2022-08-11T19:31:42;3.42;;;1.40;;
40837;SDS011;29632;49.168;9.848;2022-08-11T19:34:27;3.40;;;2.03;;
40837;SDS011;29632;49.168;9.848;2022-08-11T19:37:13;3.33;;;1.70;;
40837;SDS011;29632;49.168;9.848;2022-08-11T19:40:02;4.25;;;1.20;;
40837;SDS011;29632;49.168;9.848;2022-08-11T19:42:50;4.43;;;1.40;;
40837;SDS011;29632;49.168;9.848;2022-08-11T19:45:37;3.53;;;1.23;;
40837;SDS011;29632;49.168;9.848;2022-08-11T19:48:23;5.22;;;1.38;;
40837;SDS011;29632;49.168;9.848;2022-08-11T19:51:09;2.00;;;1.20;;
40837;SDS011;29632;49.168;9.848;2022-08-11T19:53:55;3.03;;;1.55;;
40837;SDS011;29632;49.168;9.848;2022-08-11T19:56:41;3.70;;;1.48;;